Time;durP1;ratioP1;P1;durP2;ratioP2;P2;SDS_P1;SDS_P2;PMS_P1;PMS_P2;Temp;Humidity;BMP_temperature;BMP_pressure;BME280_temperature;BME280_humidity;BME280_pressure;Samples;Min_cycle;Max_cycle;Signal;HPM_P1;HPM_P2
2023/12/15 00:01:18;;;;;;;14.82;3.13;;;;;;;-6.46;65.88;99524.09;5081838;28;20056;-64
2023/12/15 00:03:44;;;;;;;22.33;2.53;;;;;;;-6.53;65.85;99515.53;5083979;28;20028;-63
2023/12/15 00:06:10;;;;;;;13.57;3.40;;;;;;;-6.42;65.06;99513.59;5073134;28;20108;-62
2023/12/15 00:08:35;;;;;;;25.92;4.40;;;;;;;-6.60;66.57;99512.16;5084775;28;20089;-64
2023/12/15 00:11:01;;;;;;;20.15;3.83;;;;;;;-6.67;66.56;99487.09;5090947;28;20448;-64
2023/12/15 00:13:26;;;;;;;24.17;4.43;;;;;;;-6.56;66.51;99499.94;5081148;28;20063;-62
2023/12/15 00:15:53;;;;;;;27.38;3.92;;;;;;;-6.61;66.93;99506.97;5079394;28;20028;-64
2023/12/15 00:18:19;;;;;;;21.42;4.05;;;;;;;-6.56;66.57;99507.75;5093185;28;20046;-62
2023/12/15 00:20:44;;;;;;;22.38;3.90;;;;;;;-6.47;66.41;99493.72;5092636;28;20028;-62
2023/12/15 00:23:10;;;;;;;18.85;3.88;;;;;;;-6.47;67.12;99509.38;5091667;28;20462;-63
2023/12/15 00:25:35;;;;;;;29.00;4.47;;;;;;;-6.58;67.21;99488.69;5092898;28;20031;-63
2023/12/15 00:28:02;;;;;;;11.07;2.40;;;;;;;-6.47;66.92;99510.22;5093165;28;20052;-63
2023/12/15 00:30:28;;;;;;;18.02;3.05;;;;;;;-6.71;66.95;99464.59;5092320;28;20501;-62
2023/12/15 00:32:53;;;;;;;24.02;4.60;;;;;;;-6.45;66.53;99497.16;5091806;28;20032;-63
2023/12/15 00:35:19;;;;;;;23.92;3.92;;;;;;;-6.54;66.91;99480.78;5091821;28;20503;-64
2023/12/15 00:37:44;;;;;;;31.83;4.50;;;;;;;-6.44;66.73;99476.28;5089430;28;20088;-63
2023/12/15 00:40:10;;;;;;;28.42;3.92;;;;;;;-6.44;66.87;99458.06;5083301;28;20034;-62
2023/12/15 00:42:36;;;;;;;22.05;4.20;;;;;;;-6.33;65.90;99444.84;5079021;28;20057;-62
2023/12/15 00:45:02;;;;;;;21.20;3.47;;;;;;;-6.39;66.38;99460.59;5091016;28;20139;-62
2023/12/15 00:47:30;;;;;;;32.80;4.43;;;;;;;-6.52;67.15;99460.78;5084504;28;20119;-63
2023/12/15 00:49:57;;;;;;;19.98;3.70;;;;;;;-6.37;66.15;99451.88;5091049;28;20123;-63
2023/12/15 00:52:22;;;;;;;24.02;4.22;;;;;;;-6.37;66.21;99449.28;5091815;28;20051;-63
2023/12/15 00:54:48;;;;;;;26.63;4.80;;;;;;;-6.46;66.46;99449.41;5092210;28;20115;-63
2023/12/15 00:57:14;;;;;;;21.13;3.40;;;;;;;-6.31;66.09;99440.47;5087521;28;20025;-63
2023/12/15 00:59:39;;;;;;;24.35;3.08;;;;;;;-6.30;65.62;99438.72;5085200;28;20033;-62
2023/12/15 01:02:05;;;;;;;32.60;4.35;;;;;;;-6.41;66.08;99444.97;5081424;28;20427;-63
2023/12/15 01:04:32;;;;;;;22.90;2.80;;;;;;;-6.44;66.40;99442.44;5077695;28;20059;-63
2023/12/15 01:06:58;;;;;;;22.83;3.50;;;;;;;-6.38;65.71;99431.06;5072782;28;20144;-63
2023/12/15 01:09:24;;;;;;;16.80;2.55;;;;;;;-6.37;65.48;99422.34;5075707;28;20442;-63
2023/12/15 01:11:50;;;;;;;17.98;3.38;;;;;;;-6.28;64.73;99422.16;5090258;28;20028;-63
2023/12/15 01:14:15;;;;;;;37.38;4.68;;;;;;;-6.64;65.56;99409.75;5074245;28;20119;-62
2023/12/15 01:16:48;;;;;;;25.52;4.47;;;;;;;-6.49;65.46;99424.28;5084627;28;20031;-63
2023/12/15 01:19:17;;;;;;;24.27;4.63;;;;;;;-6.59;65.68;99420.13;5082194;28;20035;-63
2023/12/15 01:21:43;;;;;;;26.60;3.63;;;;;;;-6.63;66.00;99432.34;5090773;28;20024;-62
2023/12/15 01:24:11;;;;;;;30.27;4.05;;;;;;;-6.59;66.47;99425.31;5074349;28;20450;-63
2023/12/15 01:26:37;;;;;;;28.65;3.13;;;;;;;-6.41;65.76;99425.91;5072313;28;20123;-62
2023/12/15 01:29:02;;;;;;;21.98;3.45;;;;;;;-6.32;64.87;99449.16;5088597;28;20040;-62
2023/12/15 01:31:28;;;;;;;21.83;3.95;;;;;;;-6.53;65.00;99424.38;5086581;28;20083;-62
2023/12/15 01:33:54;;;;;;;19.10;3.67;;;;;;;-6.47;65.16;99433.81;5079495;28;20079;-62
2023/12/15 01:36:19;;;;;;;30.95;4.82;;;;;;;-6.56;65.28;99433.06;5090370;28;20678;-62
2023/12/15 01:38:45;;;;;;;27.55;4.28;;;;;;;-6.65;65.39;99423.66;5081385;28;20032;-62
2023/12/15 01:41:11;;;;;;;16.88;2.55;;;;;;;-6.64;65.33;99401.09;5091834;28;20039;-62
2023/12/15 01:43:36;;;;;;;22.85;4.90;;;;;;;-6.64;65.65;99424.53;5076111;28;20135;-64
2023/12/15 01:46:02;;;;;;;21.98;3.58;;;;;;;-6.73;66.09;99402.13;5079266;28;20031;-63
2023/12/15 01:48:30;;;;;;;35.92;4.18;;;;;;;-6.61;65.42;99395.84;5079273;28;20087;-63
2023/12/15 01:50:55;;;;;;;12.32;3.05;;;;;;;-6.68;65.39;99405.50;5071328;28;20048;-63
2023/12/15 01:53:21;;;;;;;32.90;5.38;;;;;;;-6.69;65.77;99400.34;5082873;28;20036;-62
2023/12/15 01:55:47;;;;;;;18.25;3.70;;;;;;;-6.73;65.68;99383.06;5091768;28;20032;-62
2023/12/15 01:58:13;;;;;;;26.25;4.20;;;;;;;-6.69;65.47;99374.28;5080723;28;20033;-62
2023/12/15 02:00:38;;;;;;;29.15;3.92;;;;;;;-6.72;65.54;99380.41;5094064;28;20533;-63
2023/12/15 02:03:04;;;;;;;31.55;4.57;;;;;;;-6.79;65.55;99374.44;5095443;28;20028;-63
2023/12/15 02:05:29;;;;;;;25.00;4.50;;;;;;;-6.81;65.94;99407.44;5090365;28;20031;-62
2023/12/15 02:07:55;;;;;;;12.00;3.22;;;;;;;-6.73;65.80;99365.66;5085664;28;20142;-62
2023/12/15 02:10:21;;;;;;;29.40;4.55;;;;;;;-6.76;65.93;99368.34;5081747;28;20032;-62
2023/12/15 02:12:46;;;;;;;27.75;3.55;;;;;;;-6.79;65.93;99386.59;5087397;28;20443;-62
2023/12/15 02:15:13;;;;;;;27.75;3.80;;;;;;;-6.81;66.18;99371.00;5075022;28;20079;-62
2023/12/15 02:17:39;;;;;;;30.73;4.40;;;;;;;-6.79;65.47;99358.81;5079428;28;20036;-62
2023/12/15 02:20:06;;;;;;;26.75;4.45;;;;;;;-6.80;66.18;99361.47;5094467;28;20038;-62
2023/12/15 02:22:31;;;;;;;30.20;4.63;;;;;;;-6.95;65.85;99333.97;5094754;28;20032;-61
2023/12/15 02:24:57;;;;;;;25.52;4.43;;;;;;;-6.74;65.67;99370.91;5094844;28;20027;-62
2023/12/15 02:27:23;;;;;;;22.33;3.60;;;;;;;-6.66;64.98;99363.81;5094353;28;20446;-62
2023/12/15 02:29:49;;;;;;;28.25;4.40;;;;;;;-6.83;65.20;99359.75;5094530;28;20367;-62
2023/12/15 02:32:14;;;;;;;26.90;3.60;;;;;;;-6.74;65.18;99365.72;5094879;28;20036;-63
2023/12/15 02:34:40;;;;;;;23.73;3.50;;;;;;;-6.71;64.94;99344.81;5094772;28;20029;-61
2023/12/15 02:37:06;;;;;;;24.45;4.32;;;;;;;-6.70;64.32;99351.75;5094308;28;20362;-61
2023/12/15 02:39:32;;;;;;;16.52;4.00;;;;;;;-6.73;64.45;99367.44;5094183;28;20028;-61
2023/12/15 02:41:58;;;;;;;19.15;3.35;;;;;;;-6.70;64.28;99376.03;5090248;28;20028;-63
2023/12/15 02:44:23;;;;;;;21.75;3.78;;;;;;;-6.90;64.52;99355.56;5093761;28;20469;-60
2023/12/15 02:46:49;;;;;;;18.40;3.90;;;;;;;-6.80;64.66;99351.06;5079516;28;20036;-60
2023/12/15 02:49:18;;;;;;;23.95;5.03;;;;;;;-6.87;64.41;99344.22;5086105;28;20047;-62
2023/12/15 02:51:44;;;;;;;28.80;4.07;;;;;;;-6.89;64.56;99341.66;5079061;28;20404;-63
2023/12/15 02:54:09;;;;;;;32.70;5.55;;;;;;;-6.84;64.17;99350.22;5083131;28;20190;-64
2023/12/15 02:56:35;;;;;;;25.50;4.35;;;;;;;-6.86;64.61;99367.63;5074719;28;20174;-62
2023/12/15 02:59:01;;;;;;;16.90;4.68;;;;;;;-7.04;64.69;99334.97;5091551;28;20028;-63
2023/12/15 03:01:26;;;;;;;24.13;4.30;;;;;;;-7.01;64.09;99334.91;5087091;28;20382;-62
2023/12/15 03:03:52;;;;;;;29.20;5.28;;;;;;;-7.04;64.32;99311.53;5087892;28;20055;-61
2023/12/15 03:06:17;;;;;;;23.00;4.70;;;;;;;-7.02;64.16;99324.50;5077992;28;20335;-62
2023/12/15 03:08:43;;;;;;;18.90;4.47;;;;;;;-7.07;64.57;99306.41;5086993;28;20363;-62
2023/12/15 03:11:09;;;;;;;25.42;4.95;;;;;;;-7.28;64.45;99282.44;5077556;28;20406;-62
2023/12/15 03:13:37;;;;;;;26.38;4.90;;;;;;;-7.17;64.88;99316.09;5085400;28;20028;-64
2023/12/15 03:16:08;;;;;;;28.27;4.75;;;;;;;-7.02;64.74;99312.38;5077964;28;20020;-63
2023/12/15 03:18:34;;;;;;;22.73;4.60;;;;;;;-7.03;64.50;99328.88;5082063;28;20032;-62
2023/12/15 03:21:00;;;;;;;26.38;5.18;;;;;;;-7.21;64.64;99293.63;5088505;28;20082;-63
2023/12/15 03:23:26;;;;;;;19.55;4.00;;;;;;;-6.97;64.68;99322.72;5081994;28;20153;-63
2023/12/15 03:25:51;;;;;;;34.97;5.57;;;;;;;-6.94;64.39;99330.47;5088504;28;20032;-64
2023/12/15 03:28:17;;;;;;;33.53;5.05;;;;;;;-6.93;64.05;99332.19;5084245;28;20352;-62
2023/12/15 03:30:43;;;;;;;27.02;5.35;;;;;;;-6.98;64.00;99319.25;5081435;28;20037;-64
2023/12/15 03:33:08;;;;;;;33.70;5.95;;;;;;;-6.96;64.07;99321.81;5085675;28;20060;-62
2023/12/15 03:35:34;;;;;;;26.52;4.93;;;;;;;-7.04;64.13;99306.34;5079291;28;20073;-63
2023/12/15 03:38:02;;;;;;;25.73;5.32;;;;;;;-6.98;64.55;99323.59;5078662;28;20047;-67
2023/12/15 03:40:28;;;;;;;14.40;4.50;;;;;;;-6.89;64.25;99330.38;5078239;28;20064;-62
2023/12/15 03:42:53;;;;;;;17.23;3.22;;;;;;;-6.70;63.91;99299.69;5082600;28;20066;-61
2023/12/15 03:45:19;;;;;;;15.70;3.38;;;;;;;-6.72;63.76;99310.09;5073951;28;20107;-63
2023/12/15 03:47:44;;;;;;;31.63;6.00;;;;;;;-7.06;63.24;99261.28;5087257;28;20028;-62
2023/12/15 03:50:10;;;;;;;25.50;6.00;;;;;;;-7.10;64.23;99286.47;5073055;28;20040;-62
2023/12/15 03:52:35;;;;;;;21.90;5.53;;;;;;;-6.98;64.18;99318.41;5086939;28;20035;-63
2023/12/15 03:55:01;;;;;;;22.55;3.70;;;;;;;-6.78;63.84;99307.63;5087854;28;20370;-62
2023/12/15 03:57:26;;;;;;;36.67;6.50;;;;;;;-6.90;63.69;99290.47;5085511;28;20392;-64
2023/12/15 03:59:52;;;;;;;29.65;5.47;;;;;;;-7.00;64.38;99286.31;5084185;28;20047;-63
2023/12/15 04:02:20;;;;;;;21.70;3.05;;;;;;;-6.73;64.07;99295.38;5081107;28;20041;-63
2023/12/15 04:04:46;;;;;;;15.80;4.13;;;;;;;-6.79;63.44;99317.16;5089258;28;20148;-63
2023/12/15 04:07:11;;;;;;;21.92;5.13;;;;;;;-6.86;63.61;99286.09;5087563;28;20040;-62
2023/12/15 04:09:37;;;;;;;24.95;4.40;;;;;;;-6.79;63.45;99300.69;5080175;28;20339;-63
2023/12/15 04:12:03;;;;;;;30.65;5.10;;;;;;;-6.86;62.94;99299.09;5087917;28;20032;-64
2023/12/15 04:14:31;;;;;;;39.67;5.55;;;;;;;-6.90;63.13;99298.28;5071754;28;20028;-62
2023/12/15 04:16:57;;;;;;;29.25;4.93;;;;;;;-7.16;63.86;99255.38;5073600;28;20020;-63
2023/12/15 04:19:22;;;;;;;23.73;3.90;;;;;;;-6.88;63.67;99290.44;5085045;28;20020;-62
2023/12/15 04:21:48;;;;;;;11.82;2.72;;;;;;;-6.70;63.06;99286.66;5085074;28;20035;-61
2023/12/15 04:24:13;;;;;;;30.17;5.63;;;;;;;-6.93;63.36;99286.19;5087569;28;20828;-63
2023/12/15 04:26:40;;;;;;;24.17;5.43;;;;;;;-6.96;63.75;99282.78;5090028;28;20359;-63
2023/12/15 04:29:05;;;;;;;29.30;4.88;;;;;;;-6.86;63.68;99267.88;5073387;28;20455;-62
2023/12/15 04:31:31;;;;;;;36.55;5.57;;;;;;;-6.94;63.72;99261.03;5074475;28;20106;-63
2023/12/15 04:33:56;;;;;;;33.33;6.22;;;;;;;-6.94;64.33;99275.81;5067610;28;20119;-64
2023/12/15 04:36:22;;;;;;;19.92;4.75;;;;;;;-6.99;64.24;99259.41;5081066;28;20040;-64
2023/12/15 04:38:48;;;;;;;28.23;4.82;;;;;;;-6.89;64.15;99260.97;5076387;28;20028;-63
2023/12/15 04:41:21;;;;;;;24.55;4.28;;;;;;;-6.77;64.22;99271.13;5072369;28;20037;-60
2023/12/15 04:43:47;;;;;;;27.45;5.07;;;;;;;-6.76;64.22;99266.81;5086724;28;20473;-62
2023/12/15 04:46:30;;;;;;;20.10;5.28;;;;;;;-6.76;64.00;99272.00;5091244;28;20036;-63
2023/12/15 04:48:59;;;;;;;25.77;4.72;;;;;;;-7.06;63.47;99212.69;5089997;28;20454;-63
2023/12/15 04:51:25;;;;;;;26.42;5.13;;;;;;;-6.84;63.90;99253.91;5085979;28;20085;-63
2023/12/15 04:53:51;;;;;;;21.85;4.15;;;;;;;-6.93;64.23;99251.50;5071607;28;20028;-63
2023/12/15 04:56:17;;;;;;;34.72;4.97;;;;;;;-6.79;63.72;99259.06;5072499;28;20043;-63
2023/12/15 04:58:43;;;;;;;36.83;4.93;;;;;;;-6.90;63.78;99254.03;5087515;28;20098;-62
2023/12/15 05:01:10;;;;;;;24.45;4.63;;;;;;;-6.85;63.90;99261.78;5075464;28;20048;-64
2023/12/15 05:03:37;;;;;;;24.20;4.63;;;;;;;-6.85;64.05;99244.41;5086628;28;20039;-62
2023/12/15 05:06:03;;;;;;;30.65;4.57;;;;;;;-6.77;63.48;99252.91;5086340;28;20090;-63
2023/12/15 05:08:28;;;;;;;27.70;4.97;;;;;;;-6.81;63.97;99246.03;5079739;28;20036;-62
2023/12/15 05:10:54;;;;;;;5.45;2.35;;;;;;;-6.75;63.64;99249.41;5092114;28;20085;-63
2023/12/15 05:13:19;;;;;;;25.90;4.90;;;;;;;-6.84;63.75;99246.13;5092179;28;20093;-63
2023/12/15 05:15:45;;;;;;;31.10;5.50;;;;;;;-6.86;64.13;99260.06;5091415;28;20039;-62
2023/12/15 05:18:11;;;;;;;10.25;3.10;;;;;;;-6.66;63.84;99264.88;5089105;28;20039;-63
2023/12/15 05:20:38;;;;;;;27.65;5.10;;;;;;;-6.68;63.22;99248.44;5085753;28;20348;-64
2023/12/15 05:23:04;;;;;;;28.10;5.03;;;;;;;-6.73;63.58;99258.09;5081502;28;20027;-63
2023/12/15 05:25:30;;;;;;;29.48;5.57;;;;;;;-6.83;63.80;99258.25;5091694;28;20115;-64
2023/12/15 05:27:56;;;;;;;38.60;6.85;;;;;;;-6.87;63.47;99230.56;5092610;28;20399;-62
2023/12/15 05:30:22;;;;;;;31.52;6.15;;;;;;;-6.94;64.35;99241.97;5091421;28;20036;-63
2023/12/15 05:32:47;;;;;;;26.42;6.00;;;;;;;-6.85;64.52;99247.00;5093329;28;20088;-65
2023/12/15 05:35:13;;;;;;;30.95;5.95;;;;;;;-6.68;63.95;99236.25;5094194;28;20051;-64
2023/12/15 05:37:39;;;;;;;23.67;5.45;;;;;;;-6.74;63.96;99232.94;5095691;28;20039;-64
2023/12/15 05:40:05;;;;;;;27.98;5.45;;;;;;;-6.66;63.91;99239.69;5095384;28;20123;-65
2023/12/15 05:42:30;;;;;;;30.95;6.22;;;;;;;-6.75;64.74;99242.47;5095322;28;20043;-65
2023/12/15 05:44:56;;;;;;;30.88;6.43;;;;;;;-6.70;64.47;99231.97;5096227;28;20020;-64
2023/12/15 05:47:22;;;;;;;25.15;4.72;;;;;;;-6.73;64.71;99234.66;5092742;28;20055;-64
2023/12/15 05:49:47;;;;;;;41.13;6.45;;;;;;;-6.76;64.76;99227.75;5095098;28;20134;-64
2023/12/15 05:52:14;;;;;;;30.90;5.53;;;;;;;-6.73;64.27;99239.84;5093742;28;20431;-64
2023/12/15 05:54:41;;;;;;;29.40;6.60;;;;;;;-6.66;64.04;99231.88;5075390;28;20032;-64
2023/12/15 05:57:07;;;;;;;32.03;6.95;;;;;;;-6.80;64.22;99231.31;5074864;28;20028;-65
2023/12/15 05:59:32;;;;;;;30.85;5.72;;;;;;;-6.72;64.01;99242.41;5074856;28;20040;-63
2023/12/15 06:01:58;;;;;;;31.58;6.82;;;;;;;-6.78;64.47;99230.38;5083244;28;20016;-66
2023/12/15 06:04:24;;;;;;;17.48;3.97;;;;;;;-6.64;64.28;99252.69;5095459;28;20035;-64
2023/12/15 06:06:50;;;;;;;37.47;6.75;;;;;;;-6.74;64.46;99262.41;5095006;28;20923;-65
2023/12/15 06:09:16;;;;;;;21.85;4.95;;;;;;;-7.09;64.50;99171.09;5081556;28;20035;-64
2023/12/15 06:11:42;;;;;;;33.85;6.05;;;;;;;-6.98;64.62;99198.69;5074985;28;20037;-64
2023/12/15 06:14:08;;;;;;;23.25;6.65;;;;;;;-6.64;64.21;99237.91;5075235;28;20036;-64
2023/12/15 06:16:34;;;;;;;27.50;5.80;;;;;;;-6.62;64.35;99240.50;5074740;28;20390;-65
2023/12/15 06:19:00;;;;;;;32.33;6.80;;;;;;;-6.74;64.54;99243.34;5082765;28;20054;-65
2023/12/15 06:21:26;;;;;;;26.52;5.05;;;;;;;-6.66;64.01;99238.84;5095201;28;20122;-64
2023/12/15 06:23:53;;;;;;;35.42;6.22;;;;;;;-6.72;64.67;99252.00;5093354;28;20443;-65
2023/12/15 06:26:23;;;;;;;36.45;6.28;;;;;;;-6.72;64.68;99252.81;5094786;28;20027;-64
2023/12/15 06:28:50;;;;;;;24.33;5.47;;;;;;;-6.75;64.77;99246.81;5094059;28;20048;-65
2023/12/15 06:31:16;;;;;;;26.40;5.63;;;;;;;-6.56;64.40;99256.00;5092968;28;20040;-64
2023/12/15 06:33:42;;;;;;;30.98;7.20;;;;;;;-6.62;64.28;99245.69;5094954;28;20047;-64
2023/12/15 06:36:09;;;;;;;27.30;6.45;;;;;;;-6.66;64.77;99244.06;5094437;28;20109;-66
2023/12/15 06:38:42;;;;;;;26.08;6.57;;;;;;;-6.65;64.97;99253.56;5090800;28;20447;-66
2023/12/15 06:41:12;;;;;;;26.98;5.40;;;;;;;-6.58;64.21;99233.50;5093674;28;20051;-66
2023/12/15 06:43:42;;;;;;;25.98;5.72;;;;;;;-6.43;64.50;99248.78;5094209;28;20120;-65
2023/12/15 06:46:08;;;;;;;28.98;5.97;;;;;;;-6.53;63.93;99242.91;5094228;28;20442;-65
2023/12/15 06:48:34;;;;;;;32.72;5.22;;;;;;;-6.54;63.81;99233.38;5093951;28;20284;-64
2023/12/15 06:51:01;;;;;;;26.83;6.22;;;;;;;-6.66;64.22;99226.66;5094351;28;20119;-65
2023/12/15 06:53:27;;;;;;;39.83;5.65;;;;;;;-6.57;64.22;99236.03;5092153;28;20035;-63
2023/12/15 06:55:53;;;;;;;30.50;5.60;;;;;;;-6.56;64.24;99227.34;5093775;28;20039;-65
2023/12/15 06:58:19;;;;;;;25.77;5.05;;;;;;;-6.53;64.45;99235.09;5093857;28;20086;-64
2023/12/15 07:00:45;;;;;;;25.33;3.97;;;;;;;-6.42;63.72;99231.44;5094137;28;20462;-65
2023/12/15 07:03:10;;;;;;;31.08;6.15;;;;;;;-6.52;64.27;99223.78;5085689;28;20032;-64
2023/12/15 07:05:36;;;;;;;35.80;6.28;;;;;;;-6.47;64.39;99218.47;5073491;28;20032;-64
2023/12/15 07:08:05;;;;;;;27.02;5.60;;;;;;;-6.31;63.79;99223.38;5075099;28;20062;-64
2023/12/15 07:10:30;;;;;;;31.92;5.90;;;;;;;-6.34;63.96;99229.50;5073513;28;20032;-66
2023/12/15 07:12:56;;;;;;;28.88;5.47;;;;;;;-6.36;63.73;99220.88;5074259;28;20028;-64
2023/12/15 07:15:22;;;;;;;30.42;5.10;;;;;;;-6.32;63.94;99230.31;5073492;28;20135;-64
2023/12/15 07:17:48;;;;;;;27.33;6.43;;;;;;;-6.40;63.90;99234.84;5078307;28;20222;-63
2023/12/15 07:20:14;;;;;;;41.95;5.78;;;;;;;-6.39;64.27;99234.84;5090676;28;20043;-62
2023/12/15 07:22:39;;;;;;;26.27;5.93;;;;;;;-6.32;64.63;99226.88;5088747;28;20024;-65
2023/12/15 07:25:05;;;;;;;25.48;5.55;;;;;;;-6.18;64.38;99231.78;5093008;28;20031;-63
2023/12/15 07:27:31;;;;;;;33.28;5.35;;;;;;;-5.92;63.49;99229.44;5092313;28;20086;-63
2023/12/15 07:29:57;;;;;;;25.73;4.80;;;;;;;-5.93;63.07;99225.09;5076501;28;20033;-62
2023/12/15 07:32:22;;;;;;;28.25;6.00;;;;;;;-6.11;63.42;99228.16;5075203;28;20028;-62
2023/12/15 07:34:48;;;;;;;33.50;5.32;;;;;;;-6.12;63.74;99229.03;5092569;28;20047;-62
2023/12/15 07:37:14;;;;;;;37.22;6.47;;;;;;;-6.03;63.43;99234.03;5092360;28;20032;-63
2023/12/15 07:39:39;;;;;;;24.13;5.03;;;;;;;-6.12;63.95;99222.09;5092580;28;20024;-62
2023/12/15 07:42:05;;;;;;;27.58;5.70;;;;;;;-6.33;63.28;99175.66;5091932;28;20064;-63
2023/12/15 07:44:31;;;;;;;20.73;4.75;;;;;;;-6.04;63.32;99236.69;5085654;28;20032;-67
2023/12/15 07:46:56;;;;;;;28.77;6.50;;;;;;;-6.03;63.05;99234.03;5112831;28;20070;-69
2023/12/15 07:49:24;;;;;;;29.50;6.38;;;;;;;-6.17;63.88;99223.09;5094548;28;20089;-68
2023/12/15 07:51:50;;;;;;;33.30;6.43;;;;;;;-6.18;64.26;99224.81;5093045;28;20056;-67
2023/12/15 07:54:16;;;;;;;28.85;7.00;;;;;;;-6.18;64.42;99219.59;5092158;28;20113;-69
2023/12/15 07:56:41;;;;;;;28.00;6.15;;;;;;;-6.07;64.17;99240.22;5085322;28;20024;-65
2023/12/15 07:59:08;;;;;;;38.58;6.88;;;;;;;-5.92;63.93;99223.34;5097565;28;20373;-64
2023/12/15 08:01:34;;;;;;;27.92;6.38;;;;;;;-5.98;63.82;99195.69;5113547;28;20032;-62
2023/12/15 08:04:00;;;;;;;38.13;6.55;;;;;;;-5.87;63.53;99225.84;5087103;28;20030;-63
2023/12/15 08:06:26;;;;;;;30.30;6.00;;;;;;;-5.99;62.95;99193.97;5091279;28;20036;-65
2023/12/15 08:08:52;;;;;;;43.72;5.82;;;;;;;-5.96;63.11;99204.31;5093045;28;20048;-63
2023/12/15 08:11:18;;;;;;;29.27;4.90;;;;;;;-5.95;63.78;99211.25;5087810;28;20032;-64
2023/12/15 08:13:44;;;;;;;35.67;6.72;;;;;;;-6.10;63.95;99204.69;5087861;28;20443;-64
2023/12/15 08:16:10;;;;;;;34.55;4.95;;;;;;;-6.24;64.02;99178.94;5072148;28;20098;-64
2023/12/15 08:18:36;;;;;;;34.05;5.63;;;;;;;-6.03;64.30;99207.97;5072518;28;20029;-64
2023/12/15 08:21:02;;;;;;;30.85;5.32;;;;;;;-5.99;64.24;99203.53;5087342;28;20089;-70
2023/12/15 08:23:28;;;;;;;32.83;5.80;;;;;;;-5.79;63.85;99206.53;5081600;28;20044;-68
2023/12/15 08:25:53;;;;;;;32.20;6.30;;;;;;;-5.76;64.65;99208.22;5072448;28;20124;-67
2023/12/15 08:28:20;;;;;;;28.33;6.28;;;;;;;-5.65;63.88;99216.63;5072453;28;20131;-66
2023/12/15 08:30:47;;;;;;;30.05;6.70;;;;;;;-5.62;63.49;99208.72;5071533;28;20101;-66
2023/12/15 08:33:13;;;;;;;29.73;5.47;;;;;;;-5.53;63.32;99218.09;5076500;28;20105;-61
2023/12/15 08:35:39;;;;;;;24.30;5.53;;;;;;;-5.56;63.04;99225.13;5091521;28;20514;-65
2023/12/15 08:38:04;;;;;;;28.30;5.97;;;;;;;-5.62;63.40;99216.56;5092353;28;20354;-64
2023/12/15 08:40:30;;;;;;;29.10;5.68;;;;;;;-5.78;64.51;99204.81;5075267;28;20036;-65
2023/12/15 08:42:55;;;;;;;22.65;5.45;;;;;;;-5.71;64.79;99208.97;5071299;28;20040;-65
2023/12/15 08:45:21;;;;;;;37.05;6.30;;;;;;;-5.63;64.49;99214.84;5109318;28;20104;-64
2023/12/15 08:47:47;;;;;;;33.67;6.75;;;;;;;-5.67;64.50;99215.81;5110190;28;20122;-69
2023/12/15 08:50:14;;;;;;;31.55;6.25;;;;;;;-5.54;63.58;99216.38;5077360;28;20067;-68
2023/12/15 08:52:40;;;;;;;23.83;4.70;;;;;;;-5.35;63.70;99215.94;5069673;28;20059;-65
2023/12/15 08:55:06;;;;;;;33.55;6.53;;;;;;;-5.43;63.18;99220.47;5083098;28;20036;-66
2023/12/15 08:57:32;;;;;;;28.63;5.85;;;;;;;-5.55;63.91;99219.00;5092171;28;20375;-63
2023/12/15 08:59:58;;;;;;;34.50;6.38;;;;;;;-5.56;63.99;99220.78;5091893;28;20039;-65
2023/12/15 09:02:28;;;;;;;41.00;6.03;;;;;;;-5.65;63.90;99214.03;5091445;28;20102;-67
2023/12/15 09:04:53;;;;;;;30.27;6.47;;;;;;;-5.73;64.94;99208.16;5091000;28;20028;-65
2023/12/15 09:07:19;;;;;;;31.50;5.85;;;;;;;-5.65;64.76;99214.03;5092701;28;20031;-65
2023/12/15 09:09:44;;;;;;;33.08;5.95;;;;;;;-5.52;64.65;99213.75;5080643;28;20111;-66
2023/12/15 09:12:10;;;;;;;39.47;6.30;;;;;;;-5.37;64.35;99210.72;5075370;28;20029;-65
2023/12/15 09:14:36;;;;;;;34.47;6.28;;;;;;;-5.33;63.46;99203.69;5077635;28;20028;-73
2023/12/15 09:17:03;;;;;;;34.03;6.43;;;;;;;-5.48;63.94;99199.72;5083511;28;20147;-71
2023/12/15 09:19:29;;;;;;;34.45;7.50;;;;;;;-5.63;64.26;99164.44;5086919;28;20124;-67
2023/12/15 09:21:55;;;;;;;29.17;6.53;;;;;;;-5.36;64.20;99198.56;5079859;28;20038;-70
2023/12/15 09:24:21;;;;;;;35.38;6.97;;;;;;;-5.23;63.97;99204.31;5083602;28;20040;-68
2023/12/15 09:26:47;;;;;;;30.77;5.70;;;;;;;-5.16;63.87;99215.47;5094944;28;20024;-66
2023/12/15 09:29:14;;;;;;;35.42;6.35;;;;;;;-5.13;63.41;99228.44;5094696;28;20055;-64
2023/12/15 09:31:39;;;;;;;34.42;6.47;;;;;;;-5.11;64.25;99219.63;5094478;28;20032;-63
2023/12/15 09:34:05;;;;;;;36.15;6.28;;;;;;;-5.02;63.49;99223.75;5090518;28;20405;-64
2023/12/15 09:36:31;;;;;;;27.98;5.00;;;;;;;-5.20;63.87;99184.19;5091519;28;20056;-69
2023/12/15 09:38:57;;;;;;;28.40;5.80;;;;;;;-4.86;62.97;99224.22;5079582;28;20133;-69
2023/12/15 09:41:23;;;;;;;30.90;6.22;;;;;;;-4.91;63.55;99215.66;5074223;28;20021;-67
2023/12/15 09:43:50;;;;;;;31.58;6.22;;;;;;;-4.99;63.01;99222.84;5076306;28;20035;-67
2023/12/15 09:46:15;;;;;;;31.05;6.47;;;;;;;-5.01;63.79;99214.19;5092793;28;20024;-67
2023/12/15 09:48:44;;;;;;;35.45;6.20;;;;;;;-4.94;63.59;99224.44;5093150;28;20039;-67
2023/12/15 09:51:17;;;;;;;24.42;6.50;;;;;;;-4.88;63.82;99228.63;5086574;28;20028;-66
2023/12/15 09:53:45;;;;;;;32.80;5.65;;;;;;;-5.11;63.50;99177.88;5083117;28;20032;-65
2023/12/15 09:56:11;;;;;;;35.72;7.20;;;;;;;-4.89;64.15;99224.28;5094879;28;20039;-62
2023/12/15 09:58:37;;;;;;;23.98;6.25;;;;;;;-4.83;63.47;99221.50;5092271;28;21449;-66
2023/12/15 10:01:04;;;;;;;32.08;5.82;;;;;;;-4.97;63.36;99184.50;5084603;28;20036;-63
2023/12/15 10:03:30;;;;;;;34.72;6.05;;;;;;;-4.77;63.60;99223.09;5094050;28;20027;-67
2023/12/15 10:05:56;;;;;;;25.33;6.00;;;;;;;-4.83;63.30;99231.13;5089104;28;20029;-66
2023/12/15 10:08:23;;;;;;;20.67;5.47;;;;;;;-4.87;63.41;99226.88;5093433;28;20081;-68
2023/12/15 10:10:52;;;;;;;33.58;6.25;;;;;;;-4.90;63.16;99214.75;5094146;28;20044;-65
2023/12/15 10:13:18;;;;;;;32.58;6.57;;;;;;;-4.87;63.39;99226.88;5094445;28;20055;-65
2023/12/15 10:15:50;;;;;;;25.17;7.47;;;;;;;-4.90;63.88;99227.81;5094242;28;20121;-65
2023/12/15 10:18:16;;;;;;;36.03;6.40;;;;;;;-4.95;63.63;99219.25;5090393;28;20477;-66
2023/12/15 10:20:43;;;;;;;29.33;6.78;;;;;;;-4.94;64.55;99219.22;5075863;28;20036;-65
2023/12/15 10:23:09;;;;;;;30.48;6.78;;;;;;;-4.88;63.92;99230.38;5074246;28;20340;-66
2023/12/15 10:25:34;;;;;;;34.05;7.13;;;;;;;-4.90;63.59;99222.59;5072692;28;20035;-67
2023/12/15 10:28:03;;;;;;;29.92;6.13;;;;;;;-4.90;63.50;99206.91;5079904;28;20059;-70
2023/12/15 10:30:29;;;;;;;20.65;5.80;;;;;;;-5.09;63.80;99186.53;5077297;28;20047;-70
2023/12/15 10:32:58;;;;;;;39.47;8.10;;;;;;;-4.91;64.06;99216.53;5073060;28;20040;-72
2023/12/15 10:35:25;;;;;;;29.85;7.68;;;;;;;-4.82;64.18;99223.25;5078808;28;20095;-63
2023/12/15 10:37:52;;;;;;;35.92;7.20;;;;;;;-4.76;64.52;99220.47;5090740;28;20056;-66
2023/12/15 10:40:18;;;;;;;28.45;7.47;;;;;;;-4.73;64.07;99219.50;5083843;28;20032;-70
2023/12/15 10:42:44;;;;;;;30.02;8.18;;;;;;;-4.64;63.95;99237.56;5055066;28;20058;-66
2023/12/15 10:45:10;;;;;;;31.60;6.85;;;;;;;-4.54;63.13;99227.69;5071747;28;20028;-66
2023/12/15 10:47:37;;;;;;;36.63;7.38;;;;;;;-4.61;63.28;99220.91;5071880;28;20044;-66
2023/12/15 10:50:03;;;;;;;30.10;7.20;;;;;;;-4.62;62.98;99227.91;5089671;28;20048;-66
2023/12/15 10:52:33;;;;;;;28.10;7.70;;;;;;;-4.58;64.10;99228.69;5091891;28;20066;-71
2023/12/15 10:55:03;;;;;;;32.58;7.38;;;;;;;-4.52;64.03;99228.50;5091859;28;20036;-64
2023/12/15 10:57:32;;;;;;;25.83;7.45;;;;;;;-4.44;63.22;99227.44;5092069;28;20035;-65
2023/12/15 11:00:03;;;;;;;29.48;6.97;;;;;;;-4.36;63.41;99230.66;5094066;28;20032;-64
2023/12/15 11:02:34;;;;;;;29.23;7.03;;;;;;;-4.34;62.79;99231.47;5091342;28;20538;-68
2023/12/15 11:05:01;;;;;;;29.55;7.70;;;;;;;-4.26;63.13;99237.34;5082672;28;20478;-65
2023/12/15 11:07:29;;;;;;;23.88;7.22;;;;;;;-4.21;62.66;99230.22;5092086;28;20024;-64
2023/12/15 11:09:57;;;;;;;30.15;7.28;;;;;;;-4.27;62.38;99235.66;5088447;28;20412;-64
2023/12/15 11:12:42;;;;;;;26.00;6.65;;;;;;;-4.22;62.95;99244.19;5076599;28;20424;-65
2023/12/15 11:15:12;;;;;;;26.02;6.88;;;;;;;-4.19;62.91;99246.72;5073123;28;20111;-64
2023/12/15 11:17:41;;;;;;;36.60;7.22;;;;;;;-4.47;62.73;99200.50;5078749;28;20070;-63
2023/12/15 11:20:11;;;;;;;28.20;8.23;;;;;;;-4.14;62.78;99243.97;5091663;28;20116;-65